This is the latest recevied weather packets stored in our database for station/object LU8FCJ-5. If no packets are shown the sender has not sent any weather packets the latest 10 day(s).
| Time | Temp. | Humidity | Pressure | Rain* | Wind** | Luminosity | Snow |
|---|---|---|---|---|---|---|---|
| 1777671204 | 19.44° C | 67% | 1012.4 hPa | 0 mm | - | 119 W/m² | - |
| 1777670894 | 20° C | 65% | 1012.3 hPa | 0 mm | - | 119 W/m² | - |
| 1777670586 | 20° C | 65% | 1012.4 hPa | 0 mm | - | 119 W/m² | - |
| 1777670273 | 20° C | 66% | 1012.1 hPa | 0 mm | - | 119 W/m² | - |
| 1777669964 | 20.56° C | 67% | 1011.8 hPa | 0 mm | - | 119 W/m² | - |
| 1777669654 | 20.56° C | 66% | 1011.9 hPa | 0 mm | - | 119 W/m² | - |
| 1777669344 | 21.11° C | 65% | 1011.8 hPa | 0 mm | - | 119 W/m² | - |
| 1777669032 | 21.11° C | 64% | 1011.4 hPa | 0 mm | - | 156 W/m² | - |
| 1777668723 | 21.67° C | 63% | 1011.6 hPa | 0 mm | - | 156 W/m² | - |
| 1777668413 | 21.67° C | 63% | 1011.1 hPa | 0 mm | - | 156 W/m² | - |
| 1777668104 | 21.67° C | 62% | 1010.9 hPa | 0 mm | - | 156 W/m² | - |
| 1777667794 | 22.22° C | 62% | 1011.2 hPa | 0 mm | - | 156 W/m² | - |
| 1777667483 | 22.22° C | 61% | 1011.1 hPa | 0 mm | - | 156 W/m² | - |
| 1777667173 | 22.22° C | 61% | 1010.9 hPa | 0 mm | - | 120 W/m² | - |
| 1777666862 | 22.22° C | 62% | 1010.9 hPa | 0 mm | - | 120 W/m² | - |
| 1777666551 | 22.78° C | 61% | 1010.7 hPa | 0 mm | - | 120 W/m² | - |
| 1777666243 | 24.44° C | 55% | 1010.5 hPa | 0 mm | - | 120 W/m² | - |
| 1777665937 | 25.56° C | 52% | 1010.3 hPa | 0 mm | - | 120 W/m² | - |
| 1777665628 | 25.56° C | 51% | 1010.3 hPa | 0 mm | - | 120 W/m² | - |
| 1777665312 | 25.56° C | 51% | 1010.1 hPa | 0 mm | - | - | - |
| 1777665002 | 25.56° C | 51% | 1010.2 hPa | 0 mm | - | - | - |
| 1777664691 | 25.56° C | 51% | 1010 hPa | 0 mm | - | - | - |
| 1777664383 | 26.11° C | 51% | 1009.9 hPa | 0 mm | - | - | - |
| 1777664072 | 26.11° C | 50% | 1009.8 hPa | 0 mm | - | - | - |
| 1777663762 | 25.56° C | 49% | 1009.6 hPa | 0 mm | - | - | - |
* Rain latest hour (hover to see other rain measurements)
** Current wind speed in m/s (hover to see current wind gust speed)